createdAt,value
2022-10-25T00:02:19.835Z,96782.55
2022-10-25T00:12:23.737Z,96777.89
2022-10-25T00:22:29.540Z,96777.39
2022-10-25T00:32:34.696Z,96775.45
2022-10-25T00:42:38.211Z,96777.49
2022-10-25T00:52:44.871Z,96757.86
2022-10-25T01:02:49.035Z,96749.56
2022-10-25T01:12:53.382Z,96764.68
2022-10-25T01:23:19.599Z,96767.60
2022-10-25T01:33:38.306Z,96775.82
2022-10-25T01:44:09.095Z,96788.98
2022-10-25T01:54:27.898Z,96804.94
2022-10-25T02:04:50.264Z,96805.08
2022-10-25T02:15:29.048Z,96798.58
2022-10-25T02:25:37.831Z,96800.85
2022-10-25T02:35:41.493Z,96800.23
2022-10-25T02:45:45.510Z,96803.34
2022-10-25T02:55:49.146Z,96799.70
2022-10-25T03:05:53.226Z,96796.34
2022-10-25T03:15:57.076Z,96785.80
2022-10-25T03:26:01.469Z,96786.93
2022-10-25T03:36:05.813Z,96792.25
2022-10-25T03:46:09.424Z,96796.15
2022-10-25T03:56:12.982Z,96803.91
2022-10-25T04:06:16.648Z,96811.56
2022-10-25T04:16:20.200Z,96819.15
2022-10-25T04:26:23.867Z,96818.77
2022-10-25T04:36:30.220Z,96810.97
2022-10-25T04:46:33.964Z,96804.75
2022-10-25T04:56:37.639Z,96811.09
2022-10-25T05:06:41.192Z,96825.02
2022-10-25T05:16:45.058Z,96830.16
2022-10-25T05:26:49.130Z,96820.90
2022-10-25T05:36:52.614Z,96808.91
2022-10-25T05:46:56.388Z,96819.73
2022-10-25T05:57:00.037Z,96829.18
2022-10-25T06:07:03.801Z,96832.79
2022-10-25T06:17:07.360Z,96847.21
2022-10-25T06:27:11.337Z,96851.48
2022-10-25T06:37:15.947Z,96869.58
2022-10-25T06:47:19.689Z,96892.19
2022-10-25T06:57:24.428Z,96908.67
2022-10-25T07:07:28.549Z,96939.67
2022-10-25T07:17:32.538Z,96924.83
2022-10-25T07:27:36.186Z,96903.05
2022-10-25T07:37:39.848Z,96885.73
2022-10-25T07:47:43.513Z,96908.98
2022-10-25T07:57:47.255Z,96914.30
2022-10-25T08:07:51.579Z,96911.91
2022-10-25T08:18:02.755Z,96895.20
2022-10-25T08:28:06.900Z,96883.35
2022-10-25T08:38:10.544Z,96877.98
2022-10-25T08:48:19.823Z,96868.27
2022-10-25T08:58:30.205Z,96863.69
2022-10-25T09:08:43.239Z,96873.84
2022-10-25T09:18:56.638Z,96900.94
2022-10-25T09:29:09.193Z,96907.36
2022-10-25T09:39:42.132Z,96911.60
2022-10-25T09:50:01.066Z,96915.92
2022-10-25T10:00:06.008Z,96915.61
2022-10-25T10:10:25.766Z,96910.52
2022-10-25T10:20:29.532Z,96904.16
2022-10-25T10:30:39.334Z,96903.66
2022-10-25T10:40:44.680Z,96906.27
2022-10-25T10:50:50.905Z,96912.90
2022-10-25T11:01:04.362Z,96910.88
2022-10-25T11:11:13.179Z,96930.88
2022-10-25T11:21:42.796Z,96935.92
2022-10-25T11:32:20.766Z,96927.55
2022-10-25T11:42:49.657Z,96932.05
2022-10-25T11:53:03.398Z,96931.05
2022-10-25T12:03:09.936Z,96919.05
2022-10-25T12:13:16.847Z,96917.13
2022-10-25T12:23:24.617Z,96920.33
2022-10-25T12:33:44.237Z,96915.93
2022-10-25T12:44:02.939Z,96916.73
2022-10-25T12:54:15.108Z,96913.71
2022-10-25T13:04:44.777Z,96907.45
2022-10-25T13:14:52.275Z,96914.04
2022-10-25T13:24:56.706Z,96919.06
2022-10-25T13:35:03.035Z,96922.57
2022-10-25T13:45:16.052Z,96919.10
2022-10-25T13:55:23.049Z,96923.99
2022-10-25T14:05:57.512Z,96924.77
2022-10-25T14:16:05.785Z,96935.58
2022-10-25T14:26:15.462Z,96937.89
2022-10-25T14:36:22.326Z,96945.15
2022-10-25T14:46:28.508Z,96950.98
2022-10-25T14:56:36.920Z,96953.17
2022-10-25T15:06:41.329Z,96955.17
2022-10-25T15:16:48.763Z,96954.89
2022-10-25T15:26:55.802Z,96956.83
2022-10-25T15:37:00.700Z,96970.08
2022-10-25T15:47:04.974Z,96987.98
2022-10-25T15:57:08.945Z,97001.40
2022-10-25T16:07:13.656Z,97017.23
2022-10-25T16:17:17.927Z,97021.90
2022-10-25T16:27:22.091Z,97027.68
2022-10-25T16:37:25.965Z,97033.20
2022-10-25T16:47:30.356Z,97040.94
2022-10-25T16:57:35.071Z,97042.77
2022-10-25T17:07:43.620Z,97054.84
2022-10-25T17:17:48.765Z,97060.39
2022-10-25T17:27:54.827Z,97071.80
2022-10-25T17:37:59.633Z,97080.38
2022-10-25T17:48:05.399Z,97080.20
2022-10-25T17:58:09.941Z,97085.17
2022-10-25T18:08:14.918Z,97087.63
2022-10-25T18:18:20.901Z,97088.65
2022-10-25T18:28:26.150Z,97098.83
2022-10-25T18:38:31.447Z,97101.13
2022-10-25T18:48:55.516Z,97107.63
2022-10-25T18:59:01.089Z,97109.02
2022-10-25T19:09:05.981Z,97111.55
2022-10-25T19:19:12.731Z,97125.72
2022-10-25T19:29:18.319Z,97132.85
2022-10-25T19:39:23.851Z,97137.58
2022-10-25T19:49:28.221Z,97145.05
2022-10-25T19:59:36.997Z,97148.95
2022-10-25T20:09:41.688Z,97153.18
2022-10-25T20:19:46.883Z,97152.67
2022-10-25T20:29:51.403Z,97158.60
2022-10-25T20:39:56.170Z,97159.82
2022-10-25T20:50:01.476Z,97164.89
2022-10-25T21:00:07.237Z,97167.69
2022-10-25T21:10:11.055Z,97164.30
2022-10-25T21:20:15.328Z,97173.64
2022-10-25T21:30:19.301Z,97180.39
2022-10-25T21:40:22.864Z,97181.04
2022-10-25T21:50:26.634Z,97188.16
2022-10-25T22:00:30.418Z,97184.85
2022-10-25T22:10:33.943Z,97184.76
2022-10-25T22:20:37.435Z,97187.75
2022-10-25T22:30:41.200Z,97184.42
2022-10-25T22:40:44.967Z,97193.83
2022-10-25T22:50:55.119Z,97196.21
2022-10-25T23:11:17.049Z,97193.51
2022-10-25T23:21:26.241Z,97191.64
2022-10-25T23:31:30.981Z,97194.45
2022-10-25T23:41:35.022Z,97194.83
2022-10-25T23:51:38.886Z,97196.77
